createdAt,value
2023-05-05T00:01:47.369Z,12.82
2023-05-05T00:04:14.286Z,12.76
2023-05-05T00:06:42.614Z,12.71
2023-05-05T00:09:09.641Z,12.66
2023-05-05T00:11:36.724Z,12.61
2023-05-05T00:14:04.930Z,12.48
2023-05-05T00:16:32.308Z,12.44
2023-05-05T00:19:00.319Z,12.42
2023-05-05T00:21:30.154Z,12.39
2023-05-05T00:23:56.962Z,12.34
2023-05-05T00:26:24.106Z,12.32
2023-05-05T00:28:52.155Z,12.25
2023-05-05T00:31:19.324Z,12.20
2023-05-05T00:33:46.153Z,12.21
2023-05-05T00:36:14.836Z,12.18
2023-05-05T00:38:41.634Z,12.20
2023-05-05T00:41:08.730Z,12.17
2023-05-05T00:43:36.112Z,12.15
2023-05-05T00:46:13.341Z,12.08
2023-05-05T00:48:40.919Z,11.94
2023-05-05T00:51:09.452Z,11.95
2023-05-05T00:53:36.478Z,11.86
2023-05-05T00:56:03.731Z,11.87
2023-05-05T00:58:30.648Z,11.77
2023-05-05T01:00:57.751Z,11.67
2023-05-05T01:03:24.912Z,11.62
2023-05-05T01:06:06.173Z,11.63
2023-05-05T01:09:01.715Z,11.59
2023-05-05T01:11:34.939Z,11.69
2023-05-05T01:14:19.209Z,11.55
2023-05-05T01:17:03.148Z,11.57
2023-05-05T01:20:06.382Z,11.54
2023-05-05T01:22:49.553Z,11.39
2023-05-05T01:25:38.109Z,11.38
2023-05-05T01:28:19.493Z,11.33
2023-05-05T01:31:07.376Z,11.27
2023-05-05T01:33:46.022Z,11.22
2023-05-05T01:36:22.881Z,11.22
2023-05-05T01:38:57.014Z,11.17
2023-05-05T01:41:30.422Z,11.14
2023-05-05T01:44:00.373Z,11.16
2023-05-05T01:46:27.603Z,11.19
2023-05-05T01:48:56.995Z,11.24
2023-05-05T01:51:25.285Z,11.25
2023-05-05T01:53:53.484Z,11.25
2023-05-05T01:56:22.926Z,11.27
2023-05-05T01:58:51.163Z,11.25
2023-05-05T02:01:21.911Z,11.25
2023-05-05T02:03:51.405Z,11.24
2023-05-05T02:06:20.803Z,11.30
2023-05-05T02:08:50.112Z,11.34
2023-05-05T02:11:17.827Z,11.18
2023-05-05T02:13:46.454Z,11.12
2023-05-05T02:16:14.026Z,11.00
2023-05-05T02:18:43.121Z,10.93
2023-05-05T02:21:10.083Z,10.89
2023-05-05T02:23:39.111Z,10.89
2023-05-05T02:26:10.441Z,10.86
2023-05-05T02:28:50.505Z,10.88
2023-05-05T02:31:20.605Z,10.84
2023-05-05T02:33:51.114Z,10.88
2023-05-05T02:36:23.481Z,10.73
2023-05-05T02:39:01.190Z,10.71
2023-05-05T02:41:31.495Z,10.69
2023-05-05T02:44:00.138Z,10.58
2023-05-05T02:46:28.150Z,10.58
2023-05-05T02:48:55.419Z,10.54
2023-05-05T02:51:22.226Z,10.51
2023-05-05T02:53:49.301Z,10.57
2023-05-05T02:56:34.934Z,10.60
2023-05-05T02:59:27.004Z,10.55
2023-05-05T03:02:21.851Z,10.51
2023-05-05T03:04:54.969Z,10.41
2023-05-05T03:07:51.673Z,10.49
2023-05-05T03:10:21.932Z,10.47
2023-05-05T03:12:53.622Z,10.42
2023-05-05T03:15:26.566Z,10.30
2023-05-05T03:17:54.208Z,10.34
2023-05-05T03:20:22.407Z,10.31
2023-05-05T03:22:49.927Z,10.28
2023-05-05T03:25:17.020Z,10.29
2023-05-05T03:27:43.868Z,10.29
2023-05-05T03:30:12.120Z,10.27
2023-05-05T03:32:38.963Z,10.28
2023-05-05T03:35:06.646Z,10.29
2023-05-05T03:37:33.438Z,10.32
2023-05-05T03:40:00.635Z,10.32
2023-05-05T03:42:27.465Z,10.33
2023-05-05T03:44:57.346Z,10.37
2023-05-05T03:47:24.750Z,10.38
2023-05-05T03:49:52.520Z,10.37
2023-05-05T03:52:19.274Z,10.26
2023-05-05T03:54:46.377Z,10.21
2023-05-05T03:57:13.145Z,10.25
2023-05-05T03:59:40.436Z,10.31
2023-05-05T04:02:07.506Z,10.39
2023-05-05T04:04:34.719Z,10.35
2023-05-05T04:07:01.700Z,10.37
2023-05-05T04:09:28.802Z,10.45
2023-05-05T04:11:55.722Z,10.53
2023-05-05T04:14:22.822Z,10.59
2023-05-05T04:16:49.653Z,10.67
2023-05-05T04:19:17.586Z,10.70
2023-05-05T04:21:44.450Z,10.76
2023-05-05T04:24:11.589Z,10.76
2023-05-05T04:26:38.439Z,10.83
2023-05-05T04:29:05.579Z,10.87
2023-05-05T04:31:32.434Z,10.90
2023-05-05T04:33:59.511Z,10.95
2023-05-05T04:36:26.264Z,10.98
2023-05-05T04:38:53.474Z,11.05
2023-05-05T04:41:20.307Z,11.05
2023-05-05T04:43:47.434Z,11.07
2023-05-05T04:46:14.529Z,11.13
2023-05-05T04:48:41.657Z,11.17
2023-05-05T04:51:08.577Z,11.25
2023-05-05T04:53:36.107Z,11.32
2023-05-05T04:56:03.459Z,11.39
2023-05-05T04:58:31.671Z,11.41
2023-05-05T05:00:58.724Z,11.49
2023-05-05T05:03:26.070Z,11.56
2023-05-05T05:05:53.107Z,11.62
2023-05-05T05:08:20.495Z,11.69
2023-05-05T05:10:47.364Z,11.78
2023-05-05T05:13:14.516Z,11.87
2023-05-05T05:15:42.025Z,11.99
2023-05-05T05:18:09.112Z,12.08
2023-05-05T05:20:36.114Z,12.18
2023-05-05T05:23:04.374Z,12.26
2023-05-05T05:25:31.321Z,12.33
2023-05-05T05:28:08.973Z,12.40
2023-05-05T05:30:37.114Z,12.51
2023-05-05T05:33:04.285Z,12.62
2023-05-05T05:35:31.603Z,12.73
2023-05-05T05:37:58.700Z,12.82
2023-05-05T05:40:25.510Z,12.95
2023-05-05T05:42:52.573Z,13.09
2023-05-05T05:45:19.386Z,13.18
2023-05-05T05:47:46.554Z,13.29
2023-05-05T05:50:13.891Z,13.40
2023-05-05T05:52:40.959Z,13.55
2023-05-05T05:55:08.529Z,13.69
2023-05-05T05:57:35.621Z,13.76
2023-05-05T06:00:02.509Z,13.92
2023-05-05T06:02:29.844Z,13.96
2023-05-05T06:04:56.682Z,14.06
2023-05-05T06:07:23.807Z,14.12
2023-05-05T06:09:50.624Z,14.23
2023-05-05T06:12:17.727Z,14.27
2023-05-05T06:14:44.521Z,14.29
2023-05-05T06:17:11.642Z,14.34
2023-05-05T06:19:40.934Z,14.39
2023-05-05T06:22:08.066Z,14.43
2023-05-05T06:24:35.040Z,14.51
2023-05-05T06:27:02.491Z,14.60
2023-05-05T06:29:29.381Z,14.67
2023-05-05T06:31:56.551Z,14.75
2023-05-05T06:34:23.344Z,14.81
2023-05-05T06:36:50.459Z,14.88
2023-05-05T06:39:17.508Z,14.89
2023-05-05T06:41:44.657Z,15.00
2023-05-05T06:44:11.438Z,15.06
2023-05-05T06:46:38.545Z,15.14
2023-05-05T06:49:05.377Z,15.11
2023-05-05T06:51:32.504Z,15.10
2023-05-05T06:53:59.322Z,15.18
2023-05-05T06:56:26.414Z,15.33
2023-05-05T06:58:53.180Z,15.40
2023-05-05T07:01:20.410Z,15.47
2023-05-05T07:03:47.393Z,15.68
2023-05-05T07:06:14.559Z,15.80
2023-05-05T07:08:41.347Z,15.90
2023-05-05T07:11:08.427Z,16.08
2023-05-05T07:13:35.233Z,16.26
2023-05-05T07:16:02.316Z,16.38
2023-05-05T07:18:29.114Z,16.42
2023-05-05T07:20:56.228Z,16.44
2023-05-05T07:23:23.019Z,16.50
2023-05-05T07:25:50.697Z,16.56
2023-05-05T07:28:17.957Z,16.53
2023-05-05T07:30:45.019Z,16.66
2023-05-05T07:33:11.867Z,16.68
2023-05-05T07:35:39.045Z,16.65
2023-05-05T07:38:06.103Z,16.48
2023-05-05T07:40:34.466Z,16.49
2023-05-05T07:43:01.431Z,16.54
2023-05-05T07:45:31.496Z,16.61
2023-05-05T07:47:58.375Z,16.64
2023-05-05T07:50:26.249Z,16.67
2023-05-05T07:52:59.287Z,16.55
2023-05-05T07:55:37.834Z,16.81
2023-05-05T07:58:04.721Z,17.05
2023-05-05T08:00:31.817Z,17.31
2023-05-05T08:02:58.754Z,17.59
2023-05-05T08:05:26.065Z,17.60
2023-05-05T08:07:55.739Z,17.79
2023-05-05T08:10:23.120Z,17.79
2023-05-05T08:12:50.170Z,18.02
2023-05-05T08:15:17.346Z,18.26
2023-05-05T08:17:52.289Z,18.36
2023-05-05T08:20:20.646Z,18.55
2023-05-05T08:22:48.266Z,18.59
2023-05-05T08:25:15.438Z,18.70
2023-05-05T08:27:43.294Z,18.78
2023-05-05T08:30:11.124Z,18.79
2023-05-05T08:32:38.502Z,18.96
2023-05-05T08:35:07.008Z,18.98
2023-05-05T08:37:34.614Z,18.97
2023-05-05T08:40:01.852Z,19.10
2023-05-05T08:42:37.736Z,19.07
2023-05-05T08:45:08.134Z,19.12
2023-05-05T08:47:36.752Z,19.26
2023-05-05T08:50:05.992Z,19.30
2023-05-05T08:52:40.321Z,19.49
2023-05-05T08:55:26.826Z,19.23
2023-05-05T08:57:58.220Z,19.29
2023-05-05T09:00:27.277Z,19.79
2023-05-05T09:02:58.981Z,19.96
2023-05-05T09:05:27.070Z,20.08
2023-05-05T09:07:54.055Z,20.31
2023-05-05T09:10:21.548Z,20.29
2023-05-05T09:12:51.202Z,20.40
2023-05-05T09:15:18.770Z,20.47
2023-05-05T09:17:45.865Z,20.70
2023-05-05T09:20:14.749Z,21.09
2023-05-05T09:22:46.782Z,21.16
2023-05-05T09:25:18.290Z,21.39
2023-05-05T09:27:47.744Z,21.51
2023-05-05T09:30:24.197Z,21.78
2023-05-05T09:32:52.947Z,21.96
2023-05-05T09:35:21.719Z,22.08
2023-05-05T09:37:48.553Z,21.81
2023-05-05T09:40:18.029Z,20.90
2023-05-05T09:42:45.235Z,20.96
2023-05-05T09:45:18.480Z,21.11
2023-05-05T09:47:46.894Z,21.41
2023-05-05T09:50:16.248Z,21.46
2023-05-05T09:52:43.354Z,21.63
2023-05-05T09:55:19.722Z,21.91
2023-05-05T09:57:47.486Z,22.05
2023-05-05T10:00:15.160Z,22.23
2023-05-05T10:02:42.224Z,22.58
2023-05-05T10:05:19.180Z,22.70
2023-05-05T10:07:47.584Z,22.14
2023-05-05T10:10:16.469Z,22.24
2023-05-05T10:12:45.986Z,22.04
2023-05-05T10:15:15.491Z,21.84
2023-05-05T10:20:21.152Z,22.50
2023-05-05T10:22:56.485Z,22.40
2023-05-05T10:25:39.169Z,22.58
2023-05-05T10:28:09.823Z,22.47
2023-05-05T10:30:43.114Z,22.77
2023-05-05T10:33:30.757Z,23.25
2023-05-05T10:36:02.391Z,22.52
2023-05-05T10:38:31.188Z,22.57
2023-05-05T10:40:59.447Z,22.38
2023-05-05T10:43:29.812Z,22.11
2023-05-05T10:45:57.459Z,22.93
2023-05-05T10:48:47.902Z,23.47
2023-05-05T10:51:41.187Z,23.27
2023-05-05T10:54:19.325Z,23.52
2023-05-05T10:56:47.268Z,23.56
2023-05-05T10:59:32.853Z,23.54
2023-05-05T11:01:59.651Z,23.76
2023-05-05T11:04:29.638Z,23.90
2023-05-05T11:07:10.292Z,24.02
2023-05-05T11:09:55.364Z,24.17
2023-05-05T11:12:22.258Z,24.07
2023-05-05T11:15:24.305Z,24.10
2023-05-05T11:17:54.805Z,24.30
2023-05-05T11:20:39.409Z,24.77
2023-05-05T11:23:06.304Z,25.21
2023-05-05T11:25:41.249Z,25.20
2023-05-05T11:28:18.993Z,24.49
2023-05-05T11:30:55.285Z,24.80
2023-05-05T11:33:33.176Z,25.07
2023-05-05T11:36:00.226Z,23.90
2023-05-05T11:38:41.500Z,24.24
2023-05-05T11:41:27.287Z,24.62
2023-05-05T11:44:30.502Z,25.38
2023-05-05T11:46:57.530Z,25.49
2023-05-05T11:49:30.123Z,24.97
2023-05-05T11:51:58.366Z,25.05
2023-05-05T11:54:26.241Z,25.13
2023-05-05T11:56:55.275Z,25.43
2023-05-05T11:59:22.551Z,25.73
2023-05-05T12:01:49.676Z,26.35
2023-05-05T12:04:17.220Z,26.36
2023-05-05T12:06:46.127Z,26.40
2023-05-05T12:09:16.513Z,25.61
2023-05-05T12:11:50.651Z,26.04
2023-05-05T12:14:17.506Z,26.08
2023-05-05T12:16:58.675Z,26.51
2023-05-05T12:19:32.940Z,26.76
2023-05-05T12:22:01.367Z,26.68
2023-05-05T12:24:28.440Z,26.82
2023-05-05T12:26:55.590Z,26.61
2023-05-05T12:29:26.877Z,26.88
2023-05-05T12:31:54.196Z,27.17
2023-05-05T12:34:21.668Z,27.54
2023-05-05T12:36:49.158Z,27.67
2023-05-05T12:39:15.925Z,25.45
2023-05-05T12:41:43.379Z,25.14
2023-05-05T12:44:10.618Z,25.99
2023-05-05T12:46:48.818Z,26.38
2023-05-05T12:49:17.586Z,26.37
2023-05-05T12:51:55.360Z,25.98
2023-05-05T12:54:24.407Z,26.20
2023-05-05T12:56:51.528Z,26.48
2023-05-05T12:59:21.028Z,26.77
2023-05-05T13:01:51.101Z,27.07
2023-05-05T13:04:19.316Z,27.65
2023-05-05T13:06:48.807Z,27.39
2023-05-05T13:09:33.916Z,27.40
2023-05-05T13:12:03.110Z,27.00
2023-05-05T13:14:33.148Z,25.57
2023-05-05T13:17:00.549Z,25.73
2023-05-05T13:19:27.770Z,26.47
2023-05-05T13:21:56.610Z,26.70
2023-05-05T13:24:34.918Z,26.63
2023-05-05T13:27:09.823Z,25.22
2023-05-05T13:29:36.793Z,25.57
2023-05-05T13:32:04.320Z,25.00
2023-05-05T13:34:31.166Z,25.31
2023-05-05T13:36:58.244Z,25.57
2023-05-05T13:39:25.241Z,26.57
2023-05-05T13:41:52.409Z,26.58
2023-05-05T13:44:19.191Z,26.73
2023-05-05T13:46:46.475Z,27.38
2023-05-05T13:49:13.422Z,27.67
2023-05-05T13:51:40.546Z,28.20
2023-05-05T13:54:07.807Z,28.51
2023-05-05T13:56:34.954Z,28.67
2023-05-05T13:59:02.497Z,28.26
2023-05-05T14:01:30.314Z,28.31
2023-05-05T14:03:58.098Z,28.78
2023-05-05T14:06:26.089Z,28.38
2023-05-05T14:08:53.127Z,28.19
2023-05-05T14:11:21.020Z,28.67
2023-05-05T14:13:48.294Z,27.54
2023-05-05T14:16:15.638Z,27.79
2023-05-05T14:18:42.593Z,28.01
2023-05-05T14:21:09.799Z,25.65
2023-05-05T14:23:36.642Z,26.44
2023-05-05T14:26:03.838Z,27.25
2023-05-05T14:28:30.784Z,28.25
2023-05-05T14:30:58.026Z,28.92
2023-05-05T14:33:24.857Z,29.05
2023-05-05T14:35:52.050Z,29.96
2023-05-05T14:38:18.953Z,30.85
2023-05-05T14:40:46.082Z,30.31
2023-05-05T14:43:12.877Z,29.18
2023-05-05T14:45:40.034Z,30.44
2023-05-05T14:48:07.147Z,31.78
2023-05-05T14:50:34.221Z,31.88
2023-05-05T14:53:01.104Z,31.95
2023-05-05T14:55:28.291Z,31.82
2023-05-05T14:57:55.453Z,33.10
2023-05-05T15:00:22.640Z,33.79
2023-05-05T15:02:49.485Z,34.48
2023-05-05T15:05:16.705Z,34.48
2023-05-05T15:07:43.613Z,35.82
2023-05-05T15:10:11.106Z,35.39
2023-05-05T15:12:37.950Z,36.92
2023-05-05T15:15:05.530Z,36.96
2023-05-05T15:17:32.774Z,36.43
2023-05-05T15:19:59.922Z,35.08
2023-05-05T15:22:26.778Z,35.99
2023-05-05T15:24:53.835Z,33.81
2023-05-05T15:27:20.613Z,33.21
2023-05-05T15:29:48.524Z,32.35
2023-05-05T15:32:15.363Z,33.44
2023-05-05T15:34:44.826Z,33.73
2023-05-05T15:37:11.772Z,32.61
2023-05-05T15:39:38.823Z,33.18
2023-05-05T15:42:05.694Z,33.20
2023-05-05T15:44:32.740Z,32.45
2023-05-05T15:47:02.268Z,31.48
2023-05-05T15:49:29.322Z,30.57
2023-05-05T15:51:56.332Z,28.35
2023-05-05T15:54:23.586Z,27.87
2023-05-05T15:56:50.388Z,27.17
2023-05-05T15:59:18.626Z,26.63
2023-05-05T16:01:46.759Z,25.93
2023-05-05T16:04:14.150Z,25.73
2023-05-05T16:06:41.081Z,25.37
2023-05-05T16:09:08.217Z,24.96
2023-05-05T16:11:35.450Z,24.83
2023-05-05T16:14:05.703Z,24.68
2023-05-05T16:16:32.794Z,24.59
2023-05-05T16:18:59.842Z,24.62
2023-05-05T16:21:27.531Z,24.56
2023-05-05T16:23:56.025Z,24.50
2023-05-05T16:26:22.849Z,24.46
2023-05-05T16:28:49.932Z,24.59
2023-05-05T16:31:17.257Z,24.43
2023-05-05T16:33:44.600Z,24.33
2023-05-05T16:36:12.521Z,24.35
2023-05-05T16:38:43.760Z,24.54
2023-05-05T16:41:11.164Z,24.93
2023-05-05T16:43:38.281Z,26.03
2023-05-05T16:46:06.109Z,27.44
2023-05-05T16:48:33.233Z,28.16
2023-05-05T16:51:00.122Z,28.32
2023-05-05T16:53:27.265Z,27.60
2023-05-05T16:55:54.200Z,27.81
2023-05-05T16:58:22.810Z,28.60
2023-05-05T17:00:50.398Z,28.70
2023-05-05T17:03:20.604Z,28.78
2023-05-05T17:05:50.278Z,29.26
2023-05-05T17:08:17.620Z,28.98
2023-05-05T17:10:45.527Z,29.15
2023-05-05T17:13:13.878Z,28.76
2023-05-05T17:15:41.880Z,27.64
2023-05-05T17:18:09.204Z,26.21
2023-05-05T17:20:36.423Z,25.12
2023-05-05T17:23:03.761Z,24.34
2023-05-05T17:25:31.286Z,23.81
2023-05-05T17:27:58.390Z,23.40
2023-05-05T17:30:25.337Z,22.90
2023-05-05T17:32:52.662Z,22.66
2023-05-05T17:35:21.289Z,22.35
2023-05-05T17:37:48.417Z,22.02
2023-05-05T17:40:15.315Z,22.02
2023-05-05T17:42:42.360Z,21.86
2023-05-05T17:45:10.030Z,21.58
2023-05-05T17:47:37.462Z,21.43
2023-05-05T17:50:04.667Z,21.33
2023-05-05T17:52:31.738Z,21.03
2023-05-05T17:54:58.615Z,20.85
2023-05-05T17:57:25.775Z,20.84
2023-05-05T17:59:53.682Z,20.74
2023-05-05T18:02:21.430Z,20.65
2023-05-05T18:04:48.303Z,20.55
2023-05-05T18:07:15.426Z,20.31
2023-05-05T18:09:42.510Z,20.15
2023-05-05T18:12:09.643Z,20.08
2023-05-05T18:14:36.797Z,20.14
2023-05-05T18:17:04.783Z,20.05
2023-05-05T18:19:31.821Z,20.16
2023-05-05T18:21:59.145Z,20.06
2023-05-05T18:24:26.156Z,19.86
2023-05-05T18:26:53.395Z,19.66
2023-05-05T18:29:21.873Z,19.53
2023-05-05T18:31:54.818Z,19.39
2023-05-05T18:34:21.899Z,19.34
2023-05-05T18:36:50.742Z,19.35
2023-05-05T18:39:17.929Z,19.32
2023-05-05T18:41:45.186Z,19.35
2023-05-05T18:44:12.040Z,19.22
2023-05-05T18:46:39.213Z,19.15
2023-05-05T18:49:06.288Z,19.05
2023-05-05T18:51:33.381Z,18.92
2023-05-05T18:54:01.040Z,18.85
2023-05-05T18:56:31.242Z,18.73
2023-05-05T18:58:58.125Z,18.74
2023-05-05T19:01:25.228Z,18.65
2023-05-05T19:03:52.102Z,18.56
2023-05-05T19:06:19.268Z,18.44
2023-05-05T19:08:46.592Z,18.37
2023-05-05T19:11:15.187Z,18.19
2023-05-05T19:13:42.556Z,18.08
2023-05-05T19:16:12.073Z,17.94
2023-05-05T19:18:39.649Z,17.84
2023-05-05T19:21:06.970Z,17.82
2023-05-05T19:23:35.992Z,17.67
2023-05-05T19:26:06.006Z,17.56
2023-05-05T19:28:33.001Z,17.49
2023-05-05T19:31:00.195Z,17.41
2023-05-05T19:33:27.146Z,17.35
2023-05-05T19:35:54.233Z,17.24
2023-05-05T19:38:21.055Z,17.25
2023-05-05T19:40:48.182Z,17.15
2023-05-05T19:43:15.131Z,17.16
2023-05-05T19:45:42.262Z,17.05
2023-05-05T19:48:09.123Z,16.95
2023-05-05T19:50:36.277Z,16.76
2023-05-05T19:53:03.815Z,16.69
2023-05-05T19:55:32.128Z,16.60
2023-05-05T19:57:58.930Z,16.58
2023-05-05T20:00:26.039Z,16.54
2023-05-05T20:02:52.928Z,16.42
2023-05-05T20:05:20.065Z,16.29
2023-05-05T20:07:47.027Z,16.14
2023-05-05T20:10:14.309Z,16.03
2023-05-05T20:12:47.630Z,16.06
2023-05-05T20:15:19.303Z,16.04
2023-05-05T20:17:49.548Z,15.90
2023-05-05T20:20:18.828Z,15.93
2023-05-05T20:22:46.886Z,15.84
2023-05-05T20:25:16.181Z,15.89
2023-05-05T20:27:43.377Z,15.85
2023-05-05T20:30:11.980Z,15.81
2023-05-05T20:32:39.051Z,15.74
2023-05-05T20:35:07.324Z,15.67
2023-05-05T20:37:34.535Z,15.74
2023-05-05T20:40:01.802Z,15.66
2023-05-05T20:42:29.654Z,15.46
2023-05-05T20:44:57.122Z,15.28
2023-05-05T20:47:24.408Z,15.22
2023-05-05T20:49:52.508Z,15.23
2023-05-05T20:52:19.633Z,15.21
2023-05-05T20:54:46.792Z,15.20
2023-05-05T20:57:13.684Z,15.14
2023-05-05T20:59:40.869Z,15.14
2023-05-05T21:02:07.990Z,15.00
2023-05-05T21:04:35.336Z,14.92
2023-05-05T21:07:02.925Z,14.93
2023-05-05T21:09:30.056Z,14.88
2023-05-05T21:11:57.086Z,14.94
2023-05-05T21:14:24.357Z,14.86
2023-05-05T21:16:51.288Z,14.82
2023-05-05T21:19:18.444Z,14.73
2023-05-05T21:21:45.612Z,14.68
2023-05-05T21:24:15.476Z,14.64
2023-05-05T21:26:44.312Z,14.46
2023-05-05T21:29:12.093Z,14.44
2023-05-05T21:31:39.061Z,14.43
2023-05-05T21:34:06.614Z,14.33
2023-05-05T21:36:33.998Z,14.34
2023-05-05T21:39:01.301Z,14.35
2023-05-05T21:41:28.874Z,14.34
2023-05-05T21:43:59.585Z,14.24
2023-05-05T21:46:26.817Z,14.24
2023-05-05T21:48:54.235Z,14.19
2023-05-05T21:51:23.305Z,14.13
2023-05-05T21:53:50.559Z,14.17
2023-05-05T21:56:17.453Z,14.13
2023-05-05T21:58:44.576Z,14.16
2023-05-05T22:01:12.163Z,13.97
2023-05-05T22:03:39.357Z,13.95
2023-05-05T22:06:06.458Z,13.92
2023-05-05T22:08:33.590Z,13.93
2023-05-05T22:11:00.607Z,13.86
2023-05-05T22:13:27.682Z,13.85
2023-05-05T22:15:54.465Z,13.75
2023-05-05T22:18:21.521Z,13.73
2023-05-05T22:20:48.289Z,13.68
2023-05-05T22:23:16.472Z,13.72
2023-05-05T22:25:44.417Z,13.72
2023-05-05T22:28:11.710Z,13.56
2023-05-05T22:30:38.567Z,13.57
2023-05-05T22:33:05.813Z,13.56
2023-05-05T22:35:37.410Z,13.49
2023-05-05T22:38:05.084Z,13.42
2023-05-05T22:40:32.192Z,13.36
2023-05-05T22:42:59.585Z,13.42
2023-05-05T22:45:27.231Z,13.35
2023-05-05T22:47:54.530Z,13.38
2023-05-05T22:50:21.418Z,13.44
2023-05-05T22:52:48.499Z,13.39
2023-05-05T22:55:15.452Z,13.39
2023-05-05T22:57:42.572Z,13.40
2023-05-05T23:00:10.729Z,13.31
2023-05-05T23:02:38.108Z,13.28
2023-05-05T23:05:06.040Z,13.19
2023-05-05T23:07:33.168Z,13.15
2023-05-05T23:09:59.940Z,13.14
2023-05-05T23:12:27.055Z,13.02
2023-05-05T23:14:53.834Z,13.00
2023-05-05T23:17:21.061Z,12.95
2023-05-05T23:19:50.106Z,12.96
2023-05-05T23:22:17.210Z,12.89
2023-05-05T23:24:44.095Z,12.82
2023-05-05T23:27:11.173Z,12.78
2023-05-05T23:29:37.962Z,12.73
2023-05-05T23:32:08.397Z,12.66
2023-05-05T23:34:35.216Z,12.57
2023-05-05T23:37:03.451Z,12.58
2023-05-05T23:39:34.221Z,12.65
2023-05-05T23:42:02.322Z,12.58
2023-05-05T23:44:29.179Z,12.53
2023-05-05T23:46:56.278Z,12.52
2023-05-05T23:49:24.973Z,12.51
2023-05-05T23:51:52.686Z,12.46
2023-05-05T23:54:19.496Z,12.41
2023-05-05T23:56:47.822Z,12.37
2023-05-05T23:59:14.658Z,12.37
